Howardsville, VA (24562)

8:29 PM EST on February 10, 2016 (GMT -0500)
Along Langhorne Rd | | Change Station
CLOSE
Current Station
Personal Weather Station
Location: Scottsville, VA
Elevation: 367 ft
Nearby Weather Stations

Elev 367 ft 37.80 °N, 78.54 °W | Updated 4 minutes ago

Partly Cloudy
Partly Cloudy
25.0 °F
Feels Like 25 °F
N
2.9
Wind Variable Wind from WNW
Gusts 9.0 mph

Today
High -- | Low -- °F
--% Chance of Precip.
Yesterday
High -- | Low -- °F
Precip. -- in
Pressure 29.94 in
Visibility 10.0 miles
Clouds Mostly Cloudy 10000 ft
Windchill 25 °F
Dew Point 9 °F
Humidity 51%
Rainfall 0.00 in
Snow Depth Not available.
7:10 AM 5:47 PM
Waxing Crescent, 8% visible
METAR KCHO 110053Z 30009G19KT 10SM BKN100 M03/M16 A2992 RMK AO2 SLP136 T10331161
Pressure 29.94 in
Visibility 10.0 miles
Clouds Mostly Cloudy 10000 ft
Windchill 25 °F
Dew Point 9 °F
Humidity 51%
Rainfall 0.00 in
Snow Depth Not available.
7:10 AM 5:47 PM
Waxing Crescent, 8% visible
METAR KCHO 110053Z 30009G19KT 10SM BKN100 M03/M16 A2992 RMK AO2 SLP136 T10331161

10-Day Weather Forecast

Almanac

Astronomy

Feb. 10, 2016 Rise Set
Actual Time
Civil Twilight
Nautical Twilight
Astronomical Twilight
Moon
Length of Visible Light
Length of Day
Tomorrow will be .
, % of the Moon is Illuminated

Today's Extremes

State Highs State Lows

Community

WunderPhotos

Upload Photos

1,891,963 photos uploaded!

WunderBlog® & News

Nearby

Air Quality

  Air Quality AQ Index Pollutant
Not available.

Snow Depth

Station Depth Elevation

Earthquake Activity

City Distance Mag. Time & Date
Minimum magnitude displayed is 2.5.

Coastal Water Temperatures

Place Temperature

Stations

Nearby Weather Stations

Station Location Temp. Windchill Dew Point Humidity Wind Precip. Elev Updated Type
                   

Watches & Warnings

There are currently no watches in effect.